Time;durP1;ratioP1;P1;durP2;ratioP2;P2;SDS_P1;SDS_P2;PMS_P1;PMS_P2;Temp;Humidity;BMP_temperature;BMP_pressure;BME280_temperature;BME280_humidity;BME280_pressure;Samples;Min_cycle;Max_cycle;Signal;HPM_P1;HPM_P2
2023/12/27 00:03:18;;;;;;;0.00;0.00;;;;;;;4.75;73.82;101403.22;15678351;28;20450;-49
2023/12/27 00:10:53;;;;;;;;;;;;;;;4.91;73.79;101407.84;15661497;28;20400;-48
2023/12/27 00:18:26;;;;;;;0.00;0.00;;;;;;;4.49;74.76;101420.00;15679487;28;19921;-48
2023/12/27 00:26:04;;;;;;;0.00;0.00;;;;;;;4.67;74.44;101429.78;15679046;28;20045;-49
2023/12/27 00:33:42;;;;;;;0.00;0.00;;;;;;;4.40;76.00;101436.88;15678143;28;20247;-48
2023/12/27 00:41:16;;;;;;;0.43;0.40;;;;;;;4.29;76.32;101434.44;15677801;28;20052;-48
2023/12/27 00:48:51;;;;;;;0.00;0.00;;;;;;;4.49;74.82;101443.09;15655431;28;20041;-48
2023/12/27 00:56:25;;;;;;;;;;;;;;;4.34;75.86;101456.09;15642835;28;20052;-47
2023/12/27 01:04:01;;;;;;;0.00;0.00;;;;;;;4.29;76.55;101479.59;15659897;28;19952;-48
2023/12/27 01:11:36;;;;;;;0.10;0.10;;;;;;;3.94;77.53;101467.97;15641699;28;20049;-49
2023/12/27 01:19:11;;;;;;;0.00;0.00;;;;;;;4.24;76.69;101496.03;15658266;28;20143;-49
2023/12/27 01:26:45;;;;;;;6.70;0.95;;;;;;;4.22;77.56;101516.59;15657646;28;20037;-46
2023/12/27 01:34:19;;;;;;;0.00;0.00;;;;;;;4.09;76.93;101532.03;15657202;28;20045;-48
2023/12/27 01:41:55;;;;;;;0.00;0.00;;;;;;;4.18;76.82;101557.72;15656048;28;20512;-50
2023/12/27 01:49:29;;;;;;;0.00;0.00;;;;;;;3.95;77.55;101551.13;15652266;28;20055;-50
2023/12/27 01:57:04;;;;;;;0.00;0.00;;;;;;;3.92;77.71;101562.91;15655938;28;20281;-52
2023/12/27 02:04:37;;;;;;;0.38;0.38;;;;;;;3.90;77.62;101559.53;15656141;28;20106;-48
2023/12/27 02:12:25;;;;;;;0.00;0.00;;;;;;;4.00;77.73;101572.78;15657151;28;20041;-53
2023/12/27 02:19:59;;;;;;;0.10;0.10;;;;;;;3.93;77.21;101561.91;15674183;28;20057;-48
2023/12/27 02:27:34;;;;;;;0.00;0.00;;;;;;;4.01;77.22;101563.81;15661281;28;20067;-48
2023/12/27 02:35:09;;;;;;;0.00;0.00;;;;;;;4.06;76.76;101581.00;15666954;28;20349;-51
2023/12/27 02:42:44;;;;;;;0.00;0.00;;;;;;;4.01;76.92;101580.63;15668222;28;20045;-49
2023/12/27 02:50:19;;;;;;;0.20;0.20;;;;;;;3.88;76.88;101573.97;15650617;28;20041;-47
2023/12/27 02:57:54;;;;;;;0.00;0.00;;;;;;;3.81;77.36;101563.91;15666809;28;20155;-48
2023/12/27 03:05:27;;;;;;;0.13;0.13;;;;;;;3.71;77.82;101563.13;15664233;28;20044;-51
2023/12/27 03:13:03;;;;;;;0.00;0.00;;;;;;;3.69;77.64;101569.56;15679664;28;20060;-50
2023/12/27 03:20:37;;;;;;;0.00;0.00;;;;;;;3.60;78.18;101573.91;15682886;28;20045;-50
2023/12/27 03:28:12;;;;;;;0.00;0.00;;;;;;;3.60;77.98;101576.56;15664544;28;20072;-48
2023/12/27 03:35:45;;;;;;;0.00;0.00;;;;;;;3.45;78.21;101580.63;15663376;28;20083;-49
2023/12/27 03:43:20;;;;;;;0.00;0.00;;;;;;;3.57;77.67;101582.16;15662876;28;20086;-49
2023/12/27 03:50:54;;;;;;;0.00;0.00;;;;;;;3.90;77.02;101591.41;15659001;28;20033;-48
2023/12/27 03:58:32;;;;;;;0.00;0.00;;;;;;;3.46;78.02;101596.44;15662831;28;20045;-47
2023/12/27 04:06:06;;;;;;;0.00;0.00;;;;;;;3.77;76.25;101607.66;15638109;28;20061;-49
2023/12/27 04:13:43;;;;;;;0.00;0.00;;;;;;;3.56;77.40;101605.22;15661490;28;20186;-49
2023/12/27 04:21:17;;;;;;;0.28;0.28;;;;;;;3.40;77.73;101596.16;15679618;28;20068;-49
2023/12/27 04:28:52;;;;;;;0.00;0.00;;;;;;;3.32;77.26;101608.34;15662509;28;20059;-50
2023/12/27 04:36:25;;;;;;;0.47;0.47;;;;;;;3.55;77.09;101611.50;15661761;28;20037;-48
2023/12/27 04:44:00;;;;;;;0.00;0.00;;;;;;;3.42;77.45;101626.91;15659027;28;20525;-48
2023/12/27 04:51:35;;;;;;;0.10;0.10;;;;;;;3.36;77.35;101637.22;15654484;28;20067;-51
2023/12/27 04:59:10;;;;;;;0.00;0.00;;;;;;;3.29;77.69;101644.91;15660410;28;20045;-49
2023/12/27 05:06:44;;;;;;;0.00;0.00;;;;;;;3.45;77.10;101661.13;15640179;28;20059;-47
2023/12/27 05:14:19;;;;;;;0.00;0.00;;;;;;;3.29;77.41;101659.00;15658164;28;20043;-49
2023/12/27 05:21:52;;;;;;;0.00;0.00;;;;;;;3.55;76.42;101671.72;15658069;28;20059;-47
2023/12/27 05:29:27;;;;;;;;;;;;;;;3.10;78.06;101663.50;15679009;28;20108;-49
2023/12/27 05:37:02;;;;;;;0.00;0.00;;;;;;;2.77;78.98;101673.50;15661656;28;20230;-48
2023/12/27 05:44:39;;;;;;;0.00;0.00;;;;;;;2.59;79.84;101681.25;15673247;28;20121;-47
2023/12/27 05:52:14;;;;;;;0.00;0.00;;;;;;;2.77;80.13;101689.41;15658853;28;20460;-46
2023/12/27 05:59:52;;;;;;;0.00;0.00;;;;;;;2.58;79.96;101700.78;15674874;28;20045;-48
2023/12/27 06:07:26;;;;;;;0.03;0.03;;;;;;;2.44;79.92;101704.66;15688394;28;20047;-46
2023/12/27 06:15:01;;;;;;;;;;;;;;;2.76;78.71;101714.25;15687928;28;20037;-46
2023/12/27 06:22:35;;;;;;;0.00;0.00;;;;;;;2.43;79.99;101718.88;15671136;28;19947;-46
2023/12/27 06:30:10;;;;;;;;;;;;;;;2.27;80.65;101727.28;15685829;28;20057;-48
2023/12/27 06:37:43;;;;;;;0.00;0.00;;;;;;;2.54;79.04;101734.66;15684299;28;19920;-46
2023/12/27 06:45:19;;;;;;;0.00;0.00;;;;;;;2.33;80.14;101739.16;15662270;28;20052;-46
2023/12/27 06:53:04;;;;;;;0.00;0.00;;;;;;;2.48;79.35;101737.84;15683946;28;20427;-46
2023/12/27 07:00:38;;;;;;;0.00;0.00;;;;;;;1.93;81.09;101753.16;15683249;28;20098;-46
2023/12/27 07:08:12;;;;;;;6.03;1.23;;;;;;;2.08;80.78;101751.03;15664850;28;20051;-47
2023/12/27 07:15:47;;;;;;;0.00;0.00;;;;;;;2.40;80.71;101764.16;15664788;28;20045;-46
2023/12/27 07:23:21;;;;;;;0.00;0.00;;;;;;;2.01;80.94;101765.75;15663967;28;20087;-51
2023/12/27 07:30:57;;;;;;;0.00;0.00;;;;;;;2.34;79.68;101770.00;15681629;28;20087;-49
2023/12/27 07:38:30;;;;;;;0.00;0.00;;;;;;;2.43;79.68;101777.16;15680853;28;20132;-47
2023/12/27 07:46:06;;;;;;;0.00;0.00;;;;;;;3.32;76.46;101785.28;15675629;28;20033;-46
2023/12/27 07:53:42;;;;;;;0.10;0.10;;;;;;;3.49;75.50;101771.31;15663270;28;20375;-48
2023/12/27 08:01:17;;;;;;;;;;;;;;;3.77;74.47;101776.78;15680396;28;20059;-50
2023/12/27 08:08:51;;;;;;;0.20;0.08;;;;;;;3.24;75.19;101793.91;15662351;28;19990;-50
2023/12/27 08:16:25;;;;;;;;;;;;;;;3.68;73.81;101789.06;15680156;28;20095;-45
2023/12/27 08:24:02;;;;;;;0.00;0.00;;;;;;;3.52;74.57;101799.41;15678163;28;19975;-49
2023/12/27 08:31:36;;;;;;;0.00;0.00;;;;;;;3.52;75.10;101813.50;15678555;28;20126;-46
2023/12/27 08:39:11;;;;;;;0.00;0.00;;;;;;;3.73;74.75;101817.84;15678029;28;20059;-48
2023/12/27 08:46:45;;;;;;;;;;;;;;;3.77;74.87;101833.38;15672566;28;20429;-46
2023/12/27 08:54:18;;;;;;;0.00;0.00;;;;;;;4.28;73.95;101826.91;15659071;28;19920;-44
2023/12/27 09:01:55;;;;;;;0.00;0.00;;;;;;;3.83;74.68;101838.16;15675391;28;20037;-47
2023/12/27 09:09:29;;;;;;;0.00;0.00;;;;;;;4.54;73.08;101837.78;15671373;28;20532;-47
2023/12/27 09:17:05;;;;;;;0.00;0.00;;;;;;;4.50;72.61;101831.06;15675296;28;20553;-46
2023/12/27 09:24:41;;;;;;;2.60;2.10;;;;;;;4.41;74.22;101841.72;15674100;28;20409;-46
2023/12/27 09:32:16;;;;;;;0.00;0.00;;;;;;;5.16;69.49;101832.78;15674707;28;20052;-49
2023/12/27 09:39:50;;;;;;;0.00;0.00;;;;;;;6.11;66.41;101821.63;15656333;28;20037;-47
2023/12/27 09:47:28;;;;;;;0.00;0.00;;;;;;;6.38;66.22;101841.16;15664626;28;20563;-46
2023/12/27 09:55:02;;;;;;;0.00;0.00;;;;;;;6.67;65.74;101850.69;15651946;28;20029;-50
2023/12/27 10:02:41;;;;;;;0.00;0.00;;;;;;;6.13;66.07;101835.63;15657970;28;20102;-48
2023/12/27 10:10:15;;;;;;;0.43;0.43;;;;;;;7.13;64.12;101836.94;15672328;28;20493;-47
2023/12/27 10:17:50;;;;;;;0.00;0.00;;;;;;;6.66;64.75;101823.16;15653239;28;20044;-47
2023/12/27 10:25:26;;;;;;;0.00;0.00;;;;;;;6.80;63.98;101816.41;15674372;28;20049;-48
2023/12/27 10:33:02;;;;;;;0.00;0.00;;;;;;;7.10;63.13;101821.22;15675190;28;20041;-53
2023/12/27 10:40:39;;;;;;;0.00;0.00;;;;;;;6.13;66.65;101811.66;15677523;28;20052;-49
2023/12/27 10:48:15;;;;;;;0.00;0.00;;;;;;;6.79;65.37;101786.22;15676536;28;20070;-50
2023/12/27 10:55:49;;;;;;;1.50;1.40;;;;;;;7.05;64.36;101774.66;15686542;28;20056;-49
2023/12/27 11:03:25;;;;;;;0.00;0.00;;;;;;;7.06;63.60;101773.66;15680027;28;20382;-53
2023/12/27 11:11:04;;;;;;;0.20;0.10;;;;;;;7.28;63.88;101769.56;15681402;28;20049;-47
2023/12/27 11:18:40;;;;;;;0.00;0.00;;;;;;;7.48;62.38;101756.72;15679469;28;20171;-44
2023/12/27 11:26:15;;;;;;;0.05;0.05;;;;;;;7.06;64.38;101747.78;15664317;28;20486;-48
2023/12/27 11:33:50;;;;;;;0.00;0.00;;;;;;;7.56;63.31;101740.72;15677829;28;20043;-47
2023/12/27 11:41:23;;;;;;;0.00;0.00;;;;;;;7.49;63.21;101740.53;15674602;28;20561;-50
2023/12/27 11:48:59;;;;;;;0.00;0.00;;;;;;;7.38;62.21;101744.38;15673630;28;20037;-49
2023/12/27 11:56:35;;;;;;;0.00;0.00;;;;;;;7.45;63.68;101714.31;15688132;22;20128;-50
2023/12/27 12:04:36;;;;;;;0.00;0.00;;;;;;;7.57;62.54;101705.81;15677063;28;20151;-55
2023/12/27 12:12:11;;;;;;;4.68;1.13;;;;;;;7.34;62.83;101713.63;15680388;28;20045;-48
2023/12/27 12:19:48;;;;;;;0.10;0.10;;;;;;;7.59;63.84;101689.59;15679516;28;20052;-48
2023/12/27 12:27:22;;;;;;;0.00;0.00;;;;;;;7.98;60.48;101680.91;15679667;28;20072;-49
2023/12/27 12:34:57;;;;;;;0.32;0.10;;;;;;;7.29;63.44;101664.41;15679931;28;20045;-54
2023/12/27 12:42:33;;;;;;;0.00;0.00;;;;;;;7.81;61.68;101643.50;15661444;28;20043;-49
2023/12/27 12:50:09;;;;;;;0.95;0.95;;;;;;;8.37;59.55;101633.66;15639807;28;20055;-48
2023/12/27 12:57:42;;;;;;;0.15;0.15;;;;;;;8.16;60.13;101630.72;15678620;28;20607;-51
2023/12/27 13:05:18;;;;;;;0.40;0.13;;;;;;;7.39;61.85;101608.97;15660258;28;20041;-52
2023/12/27 13:12:52;;;;;;;0.00;0.00;;;;;;;5.99;67.63;101617.66;15660025;28;20082;-51
2023/12/27 13:20:27;;;;;;;;;;;;;;;6.98;63.95;101605.47;15678468;28;20409;-51
2023/12/27 13:28:02;;;;;;;0.00;0.00;;;;;;;6.88;64.83;101590.44;15677874;28;19921;-49
2023/12/27 13:35:37;;;;;;;0.10;0.10;;;;;;;6.80;64.41;101600.25;15676909;28;20049;-51
2023/12/27 13:43:14;;;;;;;0.00;0.00;;;;;;;6.31;66.71;101576.16;15656622;28;20444;-49
2023/12/27 13:50:50;;;;;;;0.00;0.00;;;;;;;6.75;64.72;101560.72;15670573;28;20037;-49
2023/12/27 13:58:23;;;;;;;0.08;0.08;;;;;;;6.22;66.43;101569.13;15675167;28;20137;-51
2023/12/27 14:05:59;;;;;;;0.00;0.00;;;;;;;6.41;66.18;101568.00;15671997;28;20451;-48
2023/12/27 14:13:33;;;;;;;0.05;0.05;;;;;;;6.09;67.16;101550.91;15641042;28;20045;-50
2023/12/27 14:21:08;;;;;;;;;;;;;;;5.50;68.33;101533.94;15667284;28;20053;-48
2023/12/27 14:28:41;;;;;;;0.00;0.00;;;;;;;5.20;70.49;101529.94;15686128;28;20407;-52
2023/12/27 14:36:17;;;;;;;0.00;0.00;;;;;;;4.95;71.38;101529.75;15671580;28;20458;-48
2023/12/27 14:43:51;;;;;;;0.00;0.00;;;;;;;5.10;71.14;101525.53;15683728;28;20044;-53
2023/12/27 14:51:26;;;;;;;0.00;0.00;;;;;;;5.37;70.72;101513.09;15640841;28;20140;-51
2023/12/27 14:58:59;;;;;;;0.10;0.10;;;;;;;4.88;72.81;101496.75;15624412;28;20040;-50
2023/12/27 15:06:35;;;;;;;0.00;0.00;;;;;;;4.64;73.84;101480.59;15679630;28;20548;-49
2023/12/27 15:14:10;;;;;;;0.82;0.60;;;;;;;4.74;72.77;101479.53;15683662;28;20049;-53
2023/12/27 15:21:45;;;;;;;0.00;0.00;;;;;;;5.09;71.94;101469.81;15682295;28;20044;-49
2023/12/27 15:29:19;;;;;;;1.35;1.10;;;;;;;4.71;73.26;101477.19;15684487;28;20131;-50
2023/12/27 15:36:55;;;;;;;0.00;0.00;;;;;;;4.75;73.38;101475.03;15681434;28;20497;-50
2023/12/27 15:44:28;;;;;;;0.52;0.45;;;;;;;4.54;74.27;101451.44;15677204;28;20042;-51
2023/12/27 15:52:04;;;;;;;0.10;0.10;;;;;;;5.07;72.43;101443.34;15680369;28;20068;-51
2023/12/27 15:59:37;;;;;;;0.00;0.00;;;;;;;4.78;72.82;101432.19;15663021;28;20040;-49
2023/12/27 16:07:12;;;;;;;0.32;0.32;;;;;;;4.91;72.19;101426.47;15680135;28;20049;-52
2023/12/27 16:14:46;;;;;;;0.00;0.00;;;;;;;4.79;72.45;101399.28;15650741;28;20045;-51
2023/12/27 16:22:22;;;;;;;0.00;0.00;;;;;;;4.53;73.16;101384.16;15664493;28;20084;-51
2023/12/27 16:29:55;;;;;;;0.00;0.00;;;;;;;4.84;72.19;101367.72;15662157;28;20056;-55
2023/12/27 16:37:30;;;;;;;0.20;0.20;;;;;;;4.98;72.29;101372.44;15660244;28;20045;-54
2023/12/27 16:45:04;;;;;;;0.00;0.00;;;;;;;4.92;71.89;101383.75;15658123;28;20037;-51
2023/12/27 16:52:39;;;;;;;22.58;0.85;;;;;;;4.28;74.06;101345.91;15663043;28;20110;-53
2023/12/27 17:00:14;;;;;;;0.00;0.00;;;;;;;4.20;74.46;101334.41;15672641;28;20146;-52
2023/12/27 17:07:50;;;;;;;0.57;0.57;;;;;;;4.02;74.39;101339.72;15660816;28;20045;-53
2023/12/27 17:15:24;;;;;;;2.17;0.25;;;;;;;4.44;73.21;101347.88;15663322;28;20094;-54
2023/12/27 17:22:58;;;;;;;;;;;;;;;4.11;74.23;101304.28;15650462;28;20041;-50
2023/12/27 17:30:31;;;;;;;0.00;0.00;;;;;;;4.22;73.91;101280.09;15674431;28;20015;-51
2023/12/27 17:38:06;;;;;;;;;;;;;;;4.43;72.90;101249.66;15667952;28;20073;-51
2023/12/27 17:45:40;;;;;;;0.45;0.45;;;;;;;4.22;73.97;101231.44;15663151;28;19967;-51
2023/12/27 17:53:19;;;;;;;0.00;0.00;;;;;;;4.22;73.79;101236.75;15653816;28;20038;-50
2023/12/27 18:00:52;;;;;;;0.30;0.30;;;;;;;4.11;74.18;101199.84;15623727;28;20057;-49
2023/12/27 18:08:27;;;;;;;;;;;;;;;4.24;73.77;101203.75;15681049;28;20055;-50
2023/12/27 18:16:00;;;;;;;0.00;0.00;;;;;;;4.06;74.39;101209.09;15649595;28;20473;-51
2023/12/27 18:23:35;;;;;;;0.93;0.55;;;;;;;4.11;74.10;101191.88;15637983;28;20094;-52
2023/12/27 18:31:09;;;;;;;0.00;0.00;;;;;;;4.31;73.45;101198.63;15678620;28;20076;-51
2023/12/27 18:38:43;;;;;;;0.22;0.22;;;;;;;4.42;72.79;101174.41;15666521;28;20068;-50
2023/12/27 18:46:17;;;;;;;0.00;0.00;;;;;;;4.51;73.46;101156.69;15635965;28;20143;-52
2023/12/27 18:53:51;;;;;;;0.10;0.10;;;;;;;4.43;73.71;101119.41;15677767;28;20137;-47
2023/12/27 19:01:25;;;;;;;0.00;0.00;;;;;;;4.52;73.50;101126.44;15695419;28;20045;-48
2023/12/27 19:09:00;;;;;;;0.00;0.00;;;;;;;4.39;74.02;101100.34;15645526;28;20050;-51
2023/12/27 19:16:33;;;;;;;0.10;0.10;;;;;;;4.37;74.59;101074.91;15614199;28;20033;-51
2023/12/27 19:24:08;;;;;;;0.20;0.20;;;;;;;4.42;74.18;101067.28;15676200;28;20067;-51
2023/12/27 19:31:44;;;;;;;1.35;0.43;;;;;;;4.76;72.49;101052.06;15632606;28;20572;-51
2023/12/27 19:39:19;;;;;;;0.00;0.00;;;;;;;4.94;72.14;101032.44;15667814;28;20136;-52
2023/12/27 19:46:56;;;;;;;1.00;0.90;;;;;;;5.21;71.06;101047.25;15668161;28;20076;-53
2023/12/27 19:54:31;;;;;;;0.00;0.00;;;;;;;5.38;70.72;101054.22;15650973;28;20098;-50
2023/12/27 20:02:05;;;;;;;1.30;0.45;;;;;;;5.28;71.11;101026.94;15621565;28;20046;-55
2023/12/27 20:09:40;;;;;;;0.45;0.45;;;;;;;5.06;71.79;101018.66;15687232;28;20406;-50
2023/12/27 20:17:14;;;;;;;0.00;0.00;;;;;;;4.90;72.18;101013.34;15666000;28;20048;-51
2023/12/27 20:24:51;;;;;;;0.00;0.00;;;;;;;4.93;72.14;100991.72;15682581;28;20075;-50
2023/12/27 20:32:25;;;;;;;0.20;0.20;;;;;;;4.79;72.96;100995.88;15669831;28;20059;-57
2023/12/27 20:40:00;;;;;;;0.00;0.00;;;;;;;4.77;73.41;100984.59;15659075;28;20095;-53
2023/12/27 20:47:33;;;;;;;0.00;0.00;;;;;;;4.66;73.77;100963.63;15643200;28;20415;-52
2023/12/27 20:55:09;;;;;;;0.05;0.05;;;;;;;4.61;74.28;100963.28;15681427;28;20444;-48
2023/12/27 21:02:43;;;;;;;0.00;0.00;;;;;;;4.80;73.27;100957.66;15676450;28;20051;-48
2023/12/27 21:10:17;;;;;;;;;;;;;;;4.77;73.61;100935.91;15677873;28;20049;-52
2023/12/27 21:17:51;;;;;;;0.10;0.10;;;;;;;4.77;73.96;100938.56;15676563;28;19947;-49
2023/12/27 21:25:28;;;;;;;0.00;0.00;;;;;;;4.51;74.53;100923.59;15677413;28;20045;-51
2023/12/27 21:33:02;;;;;;;0.17;0.17;;;;;;;4.20;76.12;100907.47;15672235;28;20045;-50
2023/12/27 21:40:37;;;;;;;0.20;0.20;;;;;;;4.10;76.46;100906.78;15654906;28;20048;-50
2023/12/27 21:48:11;;;;;;;0.00;0.00;;;;;;;4.49;75.29;100867.13;15672008;28;20045;-49
2023/12/27 21:55:46;;;;;;;0.00;0.00;;;;;;;4.25;76.66;100867.13;15674946;28;20041;-50
2023/12/27 22:03:21;;;;;;;0.10;0.10;;;;;;;4.10;77.42;100856.31;15656228;28;20053;-52
2023/12/27 22:10:56;;;;;;;0.00;0.00;;;;;;;4.18;77.50;100842.22;15657462;28;20284;-51
2023/12/27 22:18:30;;;;;;;0.10;0.10;;;;;;;4.19;77.63;100846.53;15658022;28;20056;-49
2023/12/27 22:26:05;;;;;;;0.00;0.00;;;;;;;4.50;76.59;100831.56;15657525;28;20047;-52
2023/12/27 22:33:39;;;;;;;4.38;3.10;;;;;;;4.55;76.56;100817.78;15679631;28;20037;-55
2023/12/27 22:41:13;;;;;;;0.03;0.03;;;;;;;4.59;77.09;100787.19;15676404;28;20116;-50
2023/12/27 22:48:49;;;;;;;1.55;0.75;;;;;;;4.73;76.76;100746.59;15681159;28;20416;-51
2023/12/27 22:56:26;;;;;;;0.00;0.00;;;;;;;4.80;76.91;100747.59;15686312;28;20037;-53
2023/12/27 23:04:01;;;;;;;0.00;0.00;;;;;;;5.05;75.79;100723.53;15655747;28;20525;-48
2023/12/27 23:11:43;;;;;;;0.20;0.20;;;;;;;4.92;76.10;100729.41;15684600;28;20048;-53
2023/12/27 23:19:16;;;;;;;0.17;0.17;;;;;;;4.86;76.33;100728.28;15684072;28;20057;-47
2023/12/27 23:26:52;;;;;;;0.10;0.10;;;;;;;4.53;76.98;100703.66;15683324;28;20086;-50
2023/12/27 23:34:26;;;;;;;0.00;0.00;;;;;;;4.73;76.82;100697.91;15684343;28;20083;-52
2023/12/27 23:42:01;;;;;;;0.20;0.20;;;;;;;4.67;76.94;100677.34;15681667;28;20502;-55
2023/12/27 23:49:35;;;;;;;0.25;0.25;;;;;;;4.86;76.36;100660.97;15677378;28;20037;-51
2023/12/27 23:57:09;;;;;;;0.00;0.00;;;;;;;4.99;75.18;100660.38;15682466;28;20055;-48
